Sweden, Maine
Current Conditions -  °F | °C
As of 7:54 PM on Wednesday 22 Oct 2014 (Local Time) from KIZG Reporting Station
Overcast Overcast  
Wind Chill: 41°   Ceiling: 1200
Heat Index: 47°   Visibility: 10mi
Dew Point: 43°   Wind: 14mph
Humidity: 86%   Direction: 40°NE
Pressure: 30.08"   Gusts: 28mph
Location:  44.1001°N, 70.6448°W
Report Text: KIZG 222354Z AUTO 04012G24KT 10SM OVC012 08/06 A3008 RMK AO2 RAE27 SLP190 P0000 60020 T00830061 10106 20078 58009
Loading
Personal Weather Stations






























Interactive Weather Map
Tropical Storm Tracking
New forecast layout! Learn more

10-Day Weather Forecast

Advertisements
Track Severe Weather on mobile